sensor_id;sensor_type;location;lat;lon;timestamp;pressure;altitude;pressure_sealevel;temperature;humidity
7018;BME280;3549;42.162;24.726;2023-09-12T00:01:47;47305.75;;;-141.97;51.13
7018;BME280;3549;42.162;24.726;2023-09-12T00:04:12;47472.94;;;-141.97;51.45
7018;BME280;3549;42.162;24.726;2023-09-12T00:06:38;47394.16;;;-141.97;51.85
7018;BME280;3549;42.162;24.726;2023-09-12T00:09:03;47353.78;;;-141.97;52.00
7018;BME280;3549;42.162;24.726;2023-09-12T00:11:31;47388.38;;;-141.97;52.63
7018;BME280;3549;42.162;24.726;2023-09-12T00:13:58;47626.72;;;-141.97;52.89
7018;BME280;3549;42.162;24.726;2023-09-12T00:16:24;47426.81;;;-141.97;53.01
7018;BME280;3549;42.162;24.726;2023-09-12T00:18:49;47438.34;;;-141.97;55.06
7018;BME280;3549;42.162;24.726;2023-09-12T00:21:15;47521.00;;;-141.97;55.29
7018;BME280;3549;42.162;24.726;2023-09-12T00:23:40;47434.50;;;-141.97;55.55
7018;BME280;3549;42.162;24.726;2023-09-12T00:26:06;47296.13;;;-141.97;55.23
7018;BME280;3549;42.162;24.726;2023-09-12T00:28:31;47444.13;;;-141.97;56.45
7018;BME280;3549;42.162;24.726;2023-09-12T00:30:58;47419.13;;;-141.97;56.56
7018;BME280;3549;42.162;24.726;2023-09-12T00:33:24;47319.19;;;-141.97;56.63
7018;BME280;3549;42.162;24.726;2023-09-12T00:35:49;47447.97;;;-141.97;56.08
7018;BME280;3549;42.162;24.726;2023-09-12T00:38:14;47384.53;;;-141.97;56.48
7018;BME280;3549;42.162;24.726;2023-09-12T00:40:40;47342.25;;;-141.97;57.87
7018;BME280;3549;42.162;24.726;2023-09-12T00:43:05;47342.25;;;-141.97;57.86
7018;BME280;3549;42.162;24.726;2023-09-12T00:45:31;47234.63;;;-141.97;58.30
7018;BME280;3549;42.162;24.726;2023-09-12T00:47:58;47332.66;;;-141.97;58.30
7018;BME280;3549;42.162;24.726;2023-09-12T00:50:24;47486.41;;;-141.97;60.62
7018;BME280;3549;42.162;24.726;2023-09-12T00:52:50;47353.78;;;-141.97;61.59
7018;BME280;3549;42.162;24.726;2023-09-12T00:55:16;47384.53;;;-141.97;61.91
7018;BME280;3549;42.162;24.726;2023-09-12T00:57:42;47586.34;;;-141.97;61.16
7018;BME280;3549;42.162;24.726;2023-09-12T01:00:11;47351.88;;;-141.97;61.16
7018;BME280;3549;42.162;24.726;2023-09-12T01:02:42;47472.94;;;-141.97;61.04
7018;BME280;3549;42.162;24.726;2023-09-12T01:05:09;47380.69;;;-141.97;60.84
7018;BME280;3549;42.162;24.726;2023-09-12T01:07:36;47463.34;;;-141.97;60.63
7018;BME280;3549;42.162;24.726;2023-09-12T01:10:01;47611.34;;;-141.97;59.75
7018;BME280;3549;42.162;24.726;2023-09-12T01:12:29;47371.09;;;-141.97;59.30
7018;BME280;3549;42.162;24.726;2023-09-12T01:14:54;47411.44;;;-141.97;59.51
7018;BME280;3549;42.162;24.726;2023-09-12T01:17:20;47430.66;;;-141.97;59.08
7018;BME280;3549;42.162;24.726;2023-09-12T01:19:45;47603.66;;;-141.97;58.86
7018;BME280;3549;42.162;24.726;2023-09-12T01:28:11;47396.06;;;-141.97;60.26
7018;BME280;3549;42.162;24.726;2023-09-12T01:30:41;47565.22;;;-141.97;61.27
7018;BME280;3549;42.162;24.726;2023-09-12T01:33:07;47465.25;;;-141.97;62.02
7018;BME280;3549;42.162;24.726;2023-09-12T01:35:32;47426.81;;;-141.97;61.24
7018;BME280;3549;42.162;24.726;2023-09-12T01:37:58;47578.66;;;-141.97;61.13
7018;BME280;3549;42.162;24.726;2023-09-12T01:40:38;47451.81;;;-141.97;60.64
7018;BME280;3549;42.162;24.726;2023-09-12T01:43:06;47538.28;;;-141.97;60.65
7018;BME280;3549;42.162;24.726;2023-09-12T01:45:32;47419.13;;;-141.97;60.96
7018;BME280;3549;42.162;24.726;2023-09-12T01:47:58;47321.13;;;-141.97;61.75
7018;BME280;3549;42.162;24.726;2023-09-12T01:50:26;47559.44;;;-141.97;61.72
7018;BME280;3549;42.162;24.726;2023-09-12T01:52:53;47419.13;;;-141.97;61.91
7018;BME280;3549;42.162;24.726;2023-09-12T01:55:20;47399.91;;;-141.97;61.34
7018;BME280;3549;42.162;24.726;2023-09-12T01:57:46;47286.53;;;-141.97;61.57
7018;BME280;3549;42.162;24.726;2023-09-12T02:00:13;47299.97;;;-141.97;61.77
7018;BME280;3549;42.162;24.726;2023-09-12T02:02:38;47632.47;;;-141.97;62.05
7018;BME280;3549;42.162;24.726;2023-09-12T02:07:44;47576.75;;;-141.97;62.17
7018;BME280;3549;42.162;24.726;2023-09-12T02:10:10;47446.03;;;-141.97;62.27
7018;BME280;3549;42.162;24.726;2023-09-12T02:12:36;47422.97;;;-141.97;61.62
7018;BME280;3549;42.162;24.726;2023-09-12T02:15:02;47424.91;;;-141.97;61.91
7018;BME280;3549;42.162;24.726;2023-09-12T02:17:27;47467.19;;;-141.97;61.12
7018;BME280;3549;42.162;24.726;2023-09-12T02:19:52;47446.03;;;-141.97;61.56
7018;BME280;3549;42.162;24.726;2023-09-12T02:22:18;47382.63;;;-141.97;61.70
7018;BME280;3549;42.162;24.726;2023-09-12T02:24:43;47476.78;;;-141.97;61.77
7018;BME280;3549;42.162;24.726;2023-09-12T02:27:09;47438.34;;;-141.97;61.99
7018;BME280;3549;42.162;24.726;2023-09-12T02:29:34;47561.38;;;-141.97;61.98
7018;BME280;3549;42.162;24.726;2023-09-12T02:32:00;47494.09;;;-141.97;63.01
7018;BME280;3549;42.162;24.726;2023-09-12T02:34:25;47388.38;;;-141.97;63.26
7018;BME280;3549;42.162;24.726;2023-09-12T02:36:51;47292.28;;;-141.97;64.47
7018;BME280;3549;42.162;24.726;2023-09-12T02:39:16;47230.78;;;-141.97;65.35
7018;BME280;3549;42.162;24.726;2023-09-12T02:41:41;47461.41;;;-141.97;65.63
7018;BME280;3549;42.162;24.726;2023-09-12T02:44:07;47426.81;;;-141.97;65.90
7018;BME280;3549;42.162;24.726;2023-09-12T02:46:33;47482.56;;;-141.97;66.71
7018;BME280;3549;42.162;24.726;2023-09-12T02:48:58;47492.16;;;-141.97;66.27
7018;BME280;3549;42.162;24.726;2023-09-12T02:51:25;47476.78;;;-141.97;65.96
7018;BME280;3549;42.162;24.726;2023-09-12T02:53:51;47463.34;;;-141.97;66.07
7018;BME280;3549;42.162;24.726;2023-09-12T02:56:16;47496.00;;;-141.97;65.92
7018;BME280;3549;42.162;24.726;2023-09-12T02:58:41;47592.13;;;-141.97;66.02
7018;BME280;3549;42.162;24.726;2023-09-12T03:01:07;47457.56;;;-141.97;66.48
7018;BME280;3549;42.162;24.726;2023-09-12T03:03:32;47349.94;;;-141.97;67.98
7018;BME280;3549;42.162;24.726;2023-09-12T03:06:01;47478.72;;;-141.97;68.24
7018;BME280;3549;42.162;24.726;2023-09-12T03:08:29;47311.50;;;-141.97;68.41
7018;BME280;3549;42.162;24.726;2023-09-12T03:10:55;47563.28;;;-141.97;69.03
7018;BME280;3549;42.162;24.726;2023-09-12T03:13:24;47584.44;;;-141.97;69.22
7018;BME280;3549;42.162;24.726;2023-09-12T03:15:50;47471.03;;;-141.97;69.17
7018;BME280;3549;42.162;24.726;2023-09-12T03:18:16;47580.59;;;-141.97;69.04
7018;BME280;3549;42.162;24.726;2023-09-12T03:20:41;47574.81;;;-141.97;69.03
7018;BME280;3549;42.162;24.726;2023-09-12T03:23:07;47419.13;;;-141.97;69.41
7018;BME280;3549;42.162;24.726;2023-09-12T03:25:38;47413.38;;;-141.97;70.10
7018;BME280;3549;42.162;24.726;2023-09-12T03:28:05;47384.53;;;-141.97;70.90
7018;BME280;3549;42.162;24.726;2023-09-12T03:30:34;47522.91;;;-141.97;70.02
7018;BME280;3549;42.162;24.726;2023-09-12T03:33:00;47463.34;;;-141.97;69.94
7018;BME280;3549;42.162;24.726;2023-09-12T03:35:26;47399.91;;;-141.97;69.74
7018;BME280;3549;42.162;24.726;2023-09-12T03:37:51;47436.44;;;-141.97;70.88
7018;BME280;3549;42.162;24.726;2023-09-12T03:40:16;47453.72;;;-141.97;71.74
7018;BME280;3549;42.162;24.726;2023-09-12T03:42:42;47572.91;;;-141.97;72.42
7018;BME280;3549;42.162;24.726;2023-09-12T03:45:08;47430.66;;;-141.97;72.69
7018;BME280;3549;42.162;24.726;2023-09-12T03:47:33;47465.25;;;-141.97;72.93
7018;BME280;3549;42.162;24.726;2023-09-12T03:49:59;47403.75;;;-141.97;73.01
7018;BME280;3549;42.162;24.726;2023-09-12T03:52:24;47469.09;;;-141.97;72.44
7018;BME280;3549;42.162;24.726;2023-09-12T03:54:50;47484.47;;;-141.97;71.70
7018;BME280;3549;42.162;24.726;2023-09-12T03:57:15;47421.06;;;-141.97;71.83
7018;BME280;3549;42.162;24.726;2023-09-12T03:59:41;47299.97;;;-141.97;71.37
7018;BME280;3549;42.162;24.726;2023-09-12T04:02:06;47492.16;;;-141.97;71.52
7018;BME280;3549;42.162;24.726;2023-09-12T04:04:32;47405.69;;;-141.97;71.77
7018;BME280;3549;42.162;24.726;2023-09-12T04:06:57;47603.66;;;-141.97;72.67
7018;BME280;3549;42.162;24.726;2023-09-12T04:09:23;47486.41;;;-141.97;73.72
7018;BME280;3549;42.162;24.726;2023-09-12T04:11:48;47361.47;;;-141.97;74.21
7018;BME280;3549;42.162;24.726;2023-09-12T04:14:14;47474.88;;;-141.97;74.21
7018;BME280;3549;42.162;24.726;2023-09-12T04:16:40;47444.13;;;-141.97;74.59
7018;BME280;3549;42.162;24.726;2023-09-12T04:19:05;47494.09;;;-141.97;74.83
7018;BME280;3549;42.162;24.726;2023-09-12T04:21:31;47330.72;;;-141.97;74.92
7018;BME280;3549;42.162;24.726;2023-09-12T04:23:56;47407.59;;;-141.97;74.26
7018;BME280;3549;42.162;24.726;2023-09-12T04:26:21;47578.66;;;-141.97;73.71
7018;BME280;3549;42.162;24.726;2023-09-12T04:28:47;47532.53;;;-141.97;73.99
7018;BME280;3549;42.162;24.726;2023-09-12T04:31:12;47580.59;;;-141.97;74.46
7018;BME280;3549;42.162;24.726;2023-09-12T04:33:38;47474.88;;;-141.97;73.77
7018;BME280;3549;42.162;24.726;2023-09-12T04:36:04;47486.41;;;-141.97;73.38
7018;BME280;3549;42.162;24.726;2023-09-12T04:38:30;47490.25;;;-141.97;73.48
7018;BME280;3549;42.162;24.726;2023-09-12T04:41:01;47419.13;;;-141.97;73.33
7018;BME280;3549;42.162;24.726;2023-09-12T04:43:32;47382.63;;;-141.97;73.86
7018;BME280;3549;42.162;24.726;2023-09-12T04:45:57;47480.63;;;-141.97;73.22
7018;BME280;3549;42.162;24.726;2023-09-12T04:48:23;47496.00;;;-141.97;72.23
7018;BME280;3549;42.162;24.726;2023-09-12T04:50:49;47499.84;;;-141.97;71.54
7018;BME280;3549;42.162;24.726;2023-09-12T04:53:14;47426.81;;;-141.97;71.83
7018;BME280;3549;42.162;24.726;2023-09-12T04:55:40;47480.63;;;-141.97;71.45
7018;BME280;3549;42.162;24.726;2023-09-12T04:58:06;47457.56;;;-141.97;71.12
7018;BME280;3549;42.162;24.726;2023-09-12T05:00:32;47461.41;;;-141.97;70.93
7018;BME280;3549;42.162;24.726;2023-09-12T05:02:57;47478.72;;;-141.97;70.12
7018;BME280;3549;42.162;24.726;2023-09-12T05:05:23;47474.88;;;-141.97;69.91
7018;BME280;3549;42.162;24.726;2023-09-12T05:07:49;47338.41;;;-141.97;69.43
7018;BME280;3549;42.162;24.726;2023-09-12T05:10:14;47292.28;;;-141.97;70.01
7018;BME280;3549;42.162;24.726;2023-09-12T05:12:39;47478.72;;;-141.97;71.01
7018;BME280;3549;42.162;24.726;2023-09-12T05:15:05;47367.25;;;-141.97;70.72
7018;BME280;3549;42.162;24.726;2023-09-12T05:17:31;47459.50;;;-141.97;71.03
7018;BME280;3549;42.162;24.726;2023-09-12T05:19:56;47496.00;;;-141.97;70.60
7018;BME280;3549;42.162;24.726;2023-09-12T05:22:22;47472.94;;;-141.97;70.85
7018;BME280;3549;42.162;24.726;2023-09-12T05:24:47;47480.63;;;-141.97;70.43
7018;BME280;3549;42.162;24.726;2023-09-12T05:27:13;47426.81;;;-141.97;69.94
7018;BME280;3549;42.162;24.726;2023-09-12T05:29:38;47346.09;;;-141.97;70.02
7018;BME280;3549;42.162;24.726;2023-09-12T05:32:04;47275.00;;;-141.97;70.84
7018;BME280;3549;42.162;24.726;2023-09-12T05:34:29;47472.94;;;-141.97;70.04
7018;BME280;3549;42.162;24.726;2023-09-12T05:36:56;47488.31;;;-141.97;70.51
7018;BME280;3549;42.162;24.726;2023-09-12T05:39:21;47615.19;;;-141.97;70.79
7018;BME280;3549;42.162;24.726;2023-09-12T05:41:47;47301.91;;;-141.97;70.24
7018;BME280;3549;42.162;24.726;2023-09-12T05:44:12;47373.00;;;-141.97;70.73
7018;BME280;3549;42.162;24.726;2023-09-12T05:46:43;47476.78;;;-141.97;69.92
7018;BME280;3549;42.162;24.726;2023-09-12T05:49:08;47373.00;;;-141.97;68.66
7018;BME280;3549;42.162;24.726;2023-09-12T05:51:34;47476.78;;;-141.97;67.31
7018;BME280;3549;42.162;24.726;2023-09-12T05:53:59;47634.41;;;-141.97;66.03
7018;BME280;3549;42.162;24.726;2023-09-12T05:56:26;47357.63;;;-141.97;66.33
7018;BME280;3549;42.162;24.726;2023-09-12T05:58:52;47511.38;;;-141.97;66.07
7018;BME280;3549;42.162;24.726;2023-09-12T06:01:17;47576.75;;;-141.97;65.92
7018;BME280;3549;42.162;24.726;2023-09-12T06:03:43;47576.75;;;-141.97;65.35
7018;BME280;3549;42.162;24.726;2023-09-12T06:06:09;47546.00;;;-141.97;64.49
7018;BME280;3549;42.162;24.726;2023-09-12T06:08:34;47580.59;;;-141.97;63.44
7018;BME280;3549;42.162;24.726;2023-09-12T06:11:00;47611.34;;;-141.97;62.69
7018;BME280;3549;42.162;24.726;2023-09-12T06:13:25;47503.69;;;-141.97;61.68
7018;BME280;3549;42.162;24.726;2023-09-12T06:15:50;47453.72;;;-141.97;60.41
7018;BME280;3549;42.162;24.726;2023-09-12T06:18:16;47480.63;;;-141.97;60.15
7018;BME280;3549;42.162;24.726;2023-09-12T06:20:42;47471.03;;;-141.97;59.73
7018;BME280;3549;42.162;24.726;2023-09-12T06:23:07;47538.28;;;-141.97;59.78
7018;BME280;3549;42.162;24.726;2023-09-12T06:25:33;47478.72;;;-141.97;59.88
7018;BME280;3549;42.162;24.726;2023-09-12T06:28:00;47642.09;;;-141.97;59.00
7018;BME280;3549;42.162;24.726;2023-09-12T06:30:26;47515.22;;;-141.97;58.18
7018;BME280;3549;42.162;24.726;2023-09-12T06:32:51;47480.63;;;-141.97;57.96
7018;BME280;3549;42.162;24.726;2023-09-12T06:35:16;47405.69;;;-141.97;57.05
7018;BME280;3549;42.162;24.726;2023-09-12T06:37:43;47594.03;;;-141.97;56.13
7018;BME280;3549;42.162;24.726;2023-09-12T06:40:09;47326.88;;;-141.97;55.51
7018;BME280;3549;42.162;24.726;2023-09-12T06:42:35;47396.06;;;-141.97;55.25
7018;BME280;3549;42.162;24.726;2023-09-12T06:45:00;47474.88;;;-141.97;53.64
7018;BME280;3549;42.162;24.726;2023-09-12T06:47:25;47630.56;;;-141.97;52.14
7018;BME280;3549;42.162;24.726;2023-09-12T06:49:51;47611.34;;;-141.97;50.33
7018;BME280;3549;42.162;24.726;2023-09-12T06:52:16;47449.88;;;-141.97;51.25
7018;BME280;3549;42.162;24.726;2023-09-12T06:54:42;47597.88;;;-141.97;49.98
7018;BME280;3549;42.162;24.726;2023-09-12T06:57:07;47276.91;;;-141.97;50.03
7018;BME280;3549;42.162;24.726;2023-09-12T06:59:32;47421.06;;;-141.97;48.90
7018;BME280;3549;42.162;24.726;2023-09-12T07:01:58;47398.00;;;-141.97;50.05
7018;BME280;3549;42.162;24.726;2023-09-12T07:04:23;47357.63;;;-141.97;49.97
7018;BME280;3549;42.162;24.726;2023-09-12T07:06:49;47376.84;;;-141.97;48.16
7018;BME280;3549;42.162;24.726;2023-09-12T07:09:16;47340.34;;;-141.97;47.91
7018;BME280;3549;42.162;24.726;2023-09-12T07:11:42;47449.88;;;-141.97;46.82
7018;BME280;3549;42.162;24.726;2023-09-12T07:14:09;47422.97;;;-141.97;47.30
7018;BME280;3549;42.162;24.726;2023-09-12T07:16:35;47238.47;;;-141.97;46.67
7018;BME280;3549;42.162;24.726;2023-09-12T07:19:01;47226.94;;;-141.97;46.73
7018;BME280;3549;42.162;24.726;2023-09-12T07:21:33;47200.03;;;-141.97;46.44
7018;BME280;3549;42.162;24.726;2023-09-12T07:23:59;47546.00;;;-141.97;46.37
7018;BME280;3549;42.162;24.726;2023-09-12T07:26:30;47203.88;;;-141.97;45.66
7018;BME280;3549;42.162;24.726;2023-09-12T07:28:55;47428.75;;;-141.97;45.05
7018;BME280;3549;42.162;24.726;2023-09-12T07:31:21;47446.03;;;-141.97;45.75
7018;BME280;3549;42.162;24.726;2023-09-12T07:33:46;47419.13;;;-141.97;46.19
7018;BME280;3549;42.162;24.726;2023-09-12T07:36:11;47273.06;;;-141.97;45.23
7018;BME280;3549;42.162;24.726;2023-09-12T07:38:37;47478.72;;;-141.97;44.31
7018;BME280;3549;42.162;24.726;2023-09-12T07:41:03;47465.25;;;-141.97;44.33
7018;BME280;3549;42.162;24.726;2023-09-12T07:43:28;47417.22;;;-141.97;43.43
7018;BME280;3549;42.162;24.726;2023-09-12T07:45:58;47394.16;;;-141.97;42.84
7018;BME280;3549;42.162;24.726;2023-09-12T07:48:24;47392.22;;;-141.97;42.97
7018;BME280;3549;42.162;24.726;2023-09-12T07:50:49;47407.59;;;-141.97;41.88
7018;BME280;3549;42.162;24.726;2023-09-12T07:53:16;47388.38;;;-141.97;41.63
7018;BME280;3549;42.162;24.726;2023-09-12T07:55:41;47307.66;;;-141.97;41.63
7018;BME280;3549;42.162;24.726;2023-09-12T07:58:15;47376.84;;;-141.97;41.65
7018;BME280;3549;42.162;24.726;2023-09-12T08:00:41;47434.50;;;-141.97;41.09
7018;BME280;3549;42.162;24.726;2023-09-12T08:03:07;47522.91;;;-141.97;40.55
7018;BME280;3549;42.162;24.726;2023-09-12T08:05:33;47576.75;;;-141.97;39.88
7018;BME280;3549;42.162;24.726;2023-09-12T08:07:58;47361.47;;;-141.97;39.23
7018;BME280;3549;42.162;24.726;2023-09-12T08:10:24;47353.78;;;-141.97;38.20
7018;BME280;3549;42.162;24.726;2023-09-12T08:12:49;47407.59;;;-141.97;38.25
7018;BME280;3549;42.162;24.726;2023-09-12T08:15:14;47373.00;;;-141.97;37.92
7018;BME280;3549;42.162;24.726;2023-09-12T08:17:40;47334.56;;;-141.97;37.85
7018;BME280;3549;42.162;24.726;2023-09-12T08:20:07;47369.16;;;-141.97;38.31
7018;BME280;3549;42.162;24.726;2023-09-12T08:22:36;47226.94;;;-141.97;37.06
7018;BME280;3549;42.162;24.726;2023-09-12T08:25:01;47584.44;;;-141.97;36.90
7018;BME280;3549;42.162;24.726;2023-09-12T08:27:26;47324.97;;;-141.97;37.08
7018;BME280;3549;42.162;24.726;2023-09-12T08:29:52;47509.47;;;-141.97;36.90
7018;BME280;3549;42.162;24.726;2023-09-12T08:32:17;47607.50;;;-141.97;36.70
7018;BME280;3549;42.162;24.726;2023-09-12T08:34:43;47538.28;;;-141.97;36.46
7018;BME280;3549;42.162;24.726;2023-09-12T08:37:08;47230.78;;;-141.97;36.96
7018;BME280;3549;42.162;24.726;2023-09-12T08:39:42;47411.44;;;-141.97;36.56
7018;BME280;3549;42.162;24.726;2023-09-12T08:42:15;47557.53;;;-141.97;35.82
7018;BME280;3549;42.162;24.726;2023-09-12T08:44:41;47278.84;;;-141.97;35.58
7018;BME280;3549;42.162;24.726;2023-09-12T08:47:09;47365.31;;;-141.97;35.37
7018;BME280;3549;42.162;24.726;2023-09-12T08:49:37;47115.47;;;-141.97;35.15
7018;BME280;3549;42.162;24.726;2023-09-12T08:52:06;47234.63;;;-141.97;34.70
7018;BME280;3549;42.162;24.726;2023-09-12T08:54:32;47355.72;;;-141.97;34.19
7018;BME280;3549;42.162;24.726;2023-09-12T08:56:57;47398.00;;;-141.97;34.36
7018;BME280;3549;42.162;24.726;2023-09-12T08:59:23;47211.56;;;-141.97;33.66
7018;BME280;3549;42.162;24.726;2023-09-12T09:01:49;47417.22;;;-141.97;33.73
7018;BME280;3549;42.162;24.726;2023-09-12T09:04:18;47344.19;;;-141.97;33.54
7018;BME280;3549;42.162;24.726;2023-09-12T09:06:45;47503.69;;;-141.97;32.87
7018;BME280;3549;42.162;24.726;2023-09-12T09:09:12;47298.06;;;-141.97;33.13
7018;BME280;3549;42.162;24.726;2023-09-12T09:11:37;47484.47;;;-141.97;33.55
7018;BME280;3549;42.162;24.726;2023-09-12T09:14:03;47323.03;;;-141.97;33.60
7018;BME280;3549;42.162;24.726;2023-09-12T09:16:28;47601.72;;;-141.97;33.68
7018;BME280;3549;42.162;24.726;2023-09-12T09:19:00;47338.41;;;-141.97;33.51
7018;BME280;3549;42.162;24.726;2023-09-12T09:21:31;47111.63;;;-141.97;33.22
7018;BME280;3549;42.162;24.726;2023-09-12T09:24:02;47344.19;;;-141.97;32.61
7018;BME280;3549;42.162;24.726;2023-09-12T09:26:50;47328.81;;;-141.97;32.09
7018;BME280;3549;42.162;24.726;2023-09-12T09:29:20;47342.25;;;-141.97;32.44
7018;BME280;3549;42.162;24.726;2023-09-12T09:31:48;47419.13;;;-141.97;32.57
7018;BME280;3549;42.162;24.726;2023-09-12T09:34:16;47296.13;;;-141.97;31.94
7018;BME280;3549;42.162;24.726;2023-09-12T09:36:48;47209.66;;;-141.97;32.03
7018;BME280;3549;42.162;24.726;2023-09-12T09:39:13;47488.31;;;-141.97;32.39
7018;BME280;3549;42.162;24.726;2023-09-12T09:41:39;47530.59;;;-141.97;32.62
7018;BME280;3549;42.162;24.726;2023-09-12T09:44:07;47165.44;;;-141.97;32.15
7018;BME280;3549;42.162;24.726;2023-09-12T09:46:33;47382.63;;;-141.97;32.13
7018;BME280;3549;42.162;24.726;2023-09-12T09:48:59;47336.50;;;-141.97;31.99
7018;BME280;3549;42.162;24.726;2023-09-12T09:51:26;47349.94;;;-141.97;32.05
7018;BME280;3549;42.162;24.726;2023-09-12T09:53:52;47311.50;;;-141.97;31.57
7018;BME280;3549;42.162;24.726;2023-09-12T09:56:18;47463.34;;;-141.97;31.34
7018;BME280;3549;42.162;24.726;2023-09-12T10:01:19;47269.22;;;-141.97;31.59
7018;BME280;3549;42.162;24.726;2023-09-12T10:03:49;47346.09;;;-141.97;31.73
7018;BME280;3549;42.162;24.726;2023-09-12T10:06:17;47461.41;;;-141.97;31.35
7018;BME280;3549;42.162;24.726;2023-09-12T10:08:44;47361.47;;;-141.97;31.54
7018;BME280;3549;42.162;24.726;2023-09-12T10:11:14;47592.13;;;-141.97;31.67
7018;BME280;3549;42.162;24.726;2023-09-12T10:13:54;47317.28;;;-141.97;31.18
7018;BME280;3549;42.162;24.726;2023-09-12T10:16:24;47261.53;;;-141.97;30.89
7018;BME280;3549;42.162;24.726;2023-09-12T10:19:15;47292.28;;;-141.97;30.84
7018;BME280;3549;42.162;24.726;2023-09-12T10:21:49;47296.13;;;-141.97;30.60
7018;BME280;3549;42.162;24.726;2023-09-12T10:24:15;47286.53;;;-141.97;30.14
7018;BME280;3549;42.162;24.726;2023-09-12T10:26:42;47292.28;;;-141.97;30.49
7018;BME280;3549;42.162;24.726;2023-09-12T10:29:12;47319.19;;;-141.97;30.56
7018;BME280;3549;42.162;24.726;2023-09-12T10:31:38;47542.16;;;-141.97;30.72
7018;BME280;3549;42.162;24.726;2023-09-12T10:34:03;47580.59;;;-141.97;30.55
7018;BME280;3549;42.162;24.726;2023-09-12T10:36:32;47284.59;;;-141.97;30.66
7018;BME280;3549;42.162;24.726;2023-09-12T10:38:58;47269.22;;;-141.97;29.92
7018;BME280;3549;42.162;24.726;2023-09-12T10:41:25;47480.63;;;-141.97;29.74
7018;BME280;3549;42.162;24.726;2023-09-12T10:43:53;47309.59;;;-141.97;30.06
7018;BME280;3549;42.162;24.726;2023-09-12T10:46:19;47198.09;;;-141.97;30.02
7018;BME280;3549;42.162;24.726;2023-09-12T10:48:44;47461.41;;;-141.97;29.65
7018;BME280;3549;42.162;24.726;2023-09-12T10:51:11;47519.06;;;-141.97;29.77
7018;BME280;3549;42.162;24.726;2023-09-12T10:53:38;47321.13;;;-141.97;29.98
7018;BME280;3549;42.162;24.726;2023-09-12T10:56:21;47311.50;;;-141.97;29.88
7018;BME280;3549;42.162;24.726;2023-09-12T11:01:33;47223.09;;;-141.97;30.15
7018;BME280;3549;42.162;24.726;2023-09-12T11:06:45;47215.41;;;-141.97;30.28
7018;BME280;3549;42.162;24.726;2023-09-12T11:11:47;47321.13;;;-141.97;30.22
7018;BME280;3549;42.162;24.726;2023-09-12T11:14:13;47194.28;;;-141.97;30.46
7018;BME280;3549;42.162;24.726;2023-09-12T11:16:39;47303.81;;;-141.97;30.33
7018;BME280;3549;42.162;24.726;2023-09-12T11:21:40;47280.75;;;-141.97;30.51
7018;BME280;3549;42.162;24.726;2023-09-12T11:24:06;47459.50;;;-141.97;30.68
7018;BME280;3549;42.162;24.726;2023-09-12T11:26:32;47436.44;;;-141.97;30.45
7018;BME280;3549;42.162;24.726;2023-09-12T11:29:12;47365.31;;;-141.97;30.83
7018;BME280;3549;42.162;24.726;2023-09-12T11:31:38;47123.16;;;-141.97;30.66
7018;BME280;3549;42.162;24.726;2023-09-12T11:34:10;47444.13;;;-141.97;30.55
7018;BME280;3549;42.162;24.726;2023-09-12T11:36:42;47188.50;;;-141.97;30.33
7018;BME280;3549;42.162;24.726;2023-09-12T11:39:29;47307.66;;;-141.97;30.47
7018;BME280;3549;42.162;24.726;2023-09-12T11:41:56;47275.00;;;-141.97;29.66
7018;BME280;3549;42.162;24.726;2023-09-12T11:44:22;47215.41;;;-141.97;29.49
7018;BME280;3549;42.162;24.726;2023-09-12T11:46:48;47265.38;;;-141.97;28.77
7018;BME280;3549;42.162;24.726;2023-09-12T11:49:17;47432.59;;;-141.97;28.33
7018;BME280;3549;42.162;24.726;2023-09-12T11:51:51;47238.47;;;-141.97;28.38
7018;BME280;3549;42.162;24.726;2023-09-12T11:54:21;47250.00;;;-141.97;28.20
7018;BME280;3549;42.162;24.726;2023-09-12T11:56:50;47226.94;;;-141.97;27.38
7018;BME280;3549;42.162;24.726;2023-09-12T11:59:23;47217.34;;;-141.97;27.00
7018;BME280;3549;42.162;24.726;2023-09-12T12:01:48;47382.63;;;-141.97;27.20
7018;BME280;3549;42.162;24.726;2023-09-12T12:04:14;47230.78;;;-141.97;27.13
7018;BME280;3549;42.162;24.726;2023-09-12T12:06:40;47203.88;;;-141.97;26.65
7018;BME280;3549;42.162;24.726;2023-09-12T12:09:06;47398.00;;;-141.97;26.68
7018;BME280;3549;42.162;24.726;2023-09-12T12:11:32;47171.22;;;-141.97;26.18
7018;BME280;3549;42.162;24.726;2023-09-12T12:13:58;47023.22;;;-141.97;26.26
7018;BME280;3549;42.162;24.726;2023-09-12T12:16:25;47127.00;;;-141.97;26.68
7018;BME280;3549;42.162;24.726;2023-09-12T12:18:51;47092.41;;;-141.97;27.19
7018;BME280;3549;42.162;24.726;2023-09-12T12:21:20;47171.22;;;-141.97;26.70
7018;BME280;3549;42.162;24.726;2023-09-12T12:23:46;47196.19;;;-141.97;26.70
7018;BME280;3549;42.162;24.726;2023-09-12T12:26:11;47257.69;;;-141.97;26.33
7018;BME280;3549;42.162;24.726;2023-09-12T12:28:37;47080.88;;;-141.97;26.40
7018;BME280;3549;42.162;24.726;2023-09-12T12:31:03;46875.25;;;-141.97;26.22
7018;BME280;3549;42.162;24.726;2023-09-12T12:33:30;46932.91;;;-141.97;25.85
7018;BME280;3549;42.162;24.726;2023-09-12T12:36:00;47071.28;;;-141.97;26.27
7018;BME280;3549;42.162;24.726;2023-09-12T12:38:26;47161.59;;;-141.97;26.64
7018;BME280;3549;42.162;24.726;2023-09-12T12:40:51;47217.34;;;-141.97;26.17
7018;BME280;3549;42.162;24.726;2023-09-12T12:43:17;47161.59;;;-141.97;25.63
7018;BME280;3549;42.162;24.726;2023-09-12T12:45:58;47165.44;;;-141.97;25.80
7018;BME280;3549;42.162;24.726;2023-09-12T12:48:34;47132.78;;;-141.97;25.89
7018;BME280;3549;42.162;24.726;2023-09-12T12:51:15;47457.56;;;-141.97;25.42
7018;BME280;3549;42.162;24.726;2023-09-12T12:53:48;47230.78;;;-141.97;25.20
7018;BME280;3549;42.162;24.726;2023-09-12T12:56:18;47503.69;;;-141.97;25.22
7018;BME280;3549;42.162;24.726;2023-09-12T12:58:48;47426.81;;;-141.97;25.37
7018;BME280;3549;42.162;24.726;2023-09-12T13:01:14;47176.97;;;-141.97;25.40
7018;BME280;3549;42.162;24.726;2023-09-12T13:03:40;47119.31;;;-141.97;25.17
7018;BME280;3549;42.162;24.726;2023-09-12T13:06:06;47173.13;;;-141.97;24.59
7018;BME280;3549;42.162;24.726;2023-09-12T13:08:33;47025.16;;;-141.97;24.90
7018;BME280;3549;42.162;24.726;2023-09-12T13:11:00;47123.16;;;-141.97;25.12